VIDP/DEL METAR and TAF weather

Enter ICAO airport designator
Station Type Date Time Source
VIDP METAR 2019/04/21 22:00 UTC NOAA

VIDP 212200Z 00000KT 3000 HZ NSC 28/14 Q1005 NOSIG


Station Type Date Time Source
VIDP Decoded METAR 2019/04/21 22:00 UTC NOAA

New Delhi / Palam, India (VIDP) 28-34N 077-07E 233M
Apr 21, 2019 - 06:00 PM EDT / 2019.04.21 2200 UTC
Wind: Calm:0
Visibility: 1 mile(s):0
Weather: haze
Temperature: 82 F (28 C)
Dew Point: 57 F (14 C)
Relative Humidity: 42%
Pressure (altimeter): 29.68 in. Hg (1005 hPa)
ob: VIDP 212200Z 00000KT 3000 HZ NSC 28/14 Q1005 NOSIG
cycle: 22

Station Type Date Time Source
VIDP TAF 2019/04/21 18:25 UTC NOAA

TAF VIDP 211700Z 2118/2224 32003KT 3000 HZ FEW100
BECMG 2200/2202 00000KT 2000 HZ
BECMG 2204/2206 27008KT 3000 HZ
BECMG 2208/2210 4500 HZ
BECMG 2216/2218 33005KT 3000 HZ SCT100

Example: see airport list